createdAt,value
2018-03-23T00:00:47.401Z,99.90
2018-03-23T00:03:16.547Z,99.70
2018-03-23T00:05:45.323Z,99.80
2018-03-23T00:08:14.161Z,99.90
2018-03-23T00:10:43.149Z,99.90
2018-03-23T00:13:11.990Z,99.90
2018-03-23T00:15:40.770Z,99.90
2018-03-23T00:18:09.708Z,99.90
2018-03-23T00:20:38.881Z,99.70
2018-03-23T00:23:07.890Z,99.70
2018-03-23T00:25:36.733Z,99.70
2018-03-23T00:28:06.322Z,99.90
2018-03-23T00:30:36.048Z,99.50
2018-03-23T00:33:05.805Z,99.80
2018-03-23T00:35:34.564Z,99.80
2018-03-23T00:38:03.574Z,99.80
2018-03-23T00:40:32.669Z,99.60
2018-03-23T00:43:03.444Z,99.90
2018-03-23T00:45:32.319Z,99.90
2018-03-23T00:48:01.096Z,99.90
2018-03-23T00:50:31.129Z,99.90
2018-03-23T00:53:00.037Z,99.90
2018-03-23T00:55:28.903Z,99.90
2018-03-23T00:57:58.915Z,99.90
2018-03-23T01:00:27.735Z,99.90
2018-03-23T01:02:56.604Z,99.90
2018-03-23T01:05:25.428Z,99.90
2018-03-23T01:07:54.282Z,99.90
2018-03-23T01:10:23.203Z,99.90
2018-03-23T01:12:52.966Z,99.90
2018-03-23T01:15:21.835Z,99.90
2018-03-23T01:17:50.947Z,99.90
2018-03-23T01:20:19.939Z,99.90
2018-03-23T01:22:48.998Z,99.90
2018-03-23T01:25:18.342Z,99.90
2018-03-23T01:27:47.234Z,99.90
2018-03-23T01:30:16.247Z,99.90
2018-03-23T01:32:45.239Z,99.90
2018-03-23T01:35:14.055Z,99.90
2018-03-23T01:37:43.941Z,99.90
2018-03-23T01:40:12.765Z,99.90
2018-03-23T01:42:41.674Z,99.90
2018-03-23T01:45:10.912Z,99.90
2018-03-23T01:47:39.795Z,99.90
2018-03-23T01:50:08.705Z,99.90
2018-03-23T01:52:37.718Z,99.90
2018-03-23T01:55:06.529Z,99.90
2018-03-23T01:57:35.485Z,99.90
2018-03-23T02:00:04.394Z,99.90
2018-03-23T02:02:33.292Z,99.90
2018-03-23T02:05:03.482Z,99.90
2018-03-23T02:07:32.355Z,99.90
2018-03-23T02:10:01.435Z,99.90
2018-03-23T02:12:30.258Z,99.90
2018-03-23T02:14:59.077Z,99.90
2018-03-23T02:17:28.675Z,99.90
2018-03-23T02:19:58.348Z,99.90
2018-03-23T02:22:27.316Z,99.90
2018-03-23T02:24:56.303Z,99.90
2018-03-23T02:27:26.318Z,99.90
2018-03-23T02:29:55.262Z,99.90
2018-03-23T02:32:29.068Z,99.90
2018-03-23T02:34:58.126Z,99.90
2018-03-23T02:37:26.983Z,99.90
2018-03-23T02:39:56.637Z,99.90
2018-03-23T02:42:25.582Z,99.90
2018-03-23T02:44:55.720Z,99.90
2018-03-23T02:47:24.596Z,99.90
2018-03-23T02:49:53.483Z,99.90
2018-03-23T02:52:23.136Z,99.90
2018-03-23T02:54:52.038Z,99.90
2018-03-23T02:57:20.866Z,99.90
2018-03-23T02:59:50.822Z,99.90
2018-03-23T03:02:19.796Z,99.90
2018-03-23T03:04:49.546Z,99.90
2018-03-23T03:07:18.682Z,99.90
2018-03-23T03:09:47.877Z,99.90
2018-03-23T03:12:17.409Z,99.90
2018-03-23T03:14:46.265Z,99.90
2018-03-23T03:17:15.155Z,99.90
2018-03-23T03:19:44.013Z,99.90
2018-03-23T03:22:12.905Z,99.90
2018-03-23T03:24:41.899Z,99.90
2018-03-23T03:27:10.649Z,99.90
2018-03-23T03:29:39.725Z,99.90
2018-03-23T03:32:09.760Z,99.90
2018-03-23T03:34:38.769Z,99.90
2018-03-23T03:37:07.557Z,99.90
2018-03-23T03:39:36.460Z,99.90
2018-03-23T03:42:05.563Z,99.90
2018-03-23T03:44:34.446Z,99.90
2018-03-23T03:47:03.560Z,99.90
2018-03-23T03:49:33.141Z,99.90
2018-03-23T03:52:01.998Z,99.90
2018-03-23T03:54:31.574Z,99.90
2018-03-23T03:57:00.451Z,99.90
2018-03-23T03:59:29.342Z,99.90
2018-03-23T04:01:58.296Z,99.90
2018-03-23T04:04:29.140Z,99.90
2018-03-23T04:07:04.886Z,99.90
2018-03-23T04:09:37.089Z,99.90
2018-03-23T04:12:06.739Z,99.90
2018-03-23T04:14:37.597Z,99.90
2018-03-23T04:17:07.683Z,99.90
2018-03-23T04:19:37.372Z,99.90
2018-03-23T04:22:07.461Z,99.90
2018-03-23T04:24:37.648Z,99.90
2018-03-23T04:27:06.623Z,99.90
2018-03-23T04:29:35.628Z,99.90
2018-03-23T04:32:05.357Z,99.90
2018-03-23T04:34:34.376Z,99.90
2018-03-23T04:37:04.197Z,99.90
2018-03-23T04:39:33.068Z,99.90
2018-03-23T04:42:02.103Z,99.90
2018-03-23T04:44:31.280Z,99.90
2018-03-23T04:47:00.069Z,99.90
2018-03-23T04:49:29.028Z,99.90
2018-03-23T04:51:57.878Z,99.90
2018-03-23T04:54:27.714Z,99.90
2018-03-23T04:56:57.409Z,99.90
2018-03-23T04:59:26.989Z,99.90
2018-03-23T05:01:55.913Z,99.90
2018-03-23T05:04:25.014Z,99.90
2018-03-23T05:06:54.184Z,99.50
2018-03-23T05:09:23.165Z,99.80
2018-03-23T05:11:52.096Z,99.80
2018-03-23T05:14:21.907Z,99.90
2018-03-23T05:16:50.883Z,99.90
2018-03-23T05:19:21.018Z,99.10
2018-03-23T05:21:50.919Z,99.10
2018-03-23T05:24:20.238Z,99.10
2018-03-23T05:26:50.048Z,98.30
2018-03-23T05:29:19.344Z,98.20
2018-03-23T05:31:49.415Z,98.10
2018-03-23T05:34:18.293Z,98.10
2018-03-23T05:36:47.183Z,98.30
2018-03-23T05:39:16.334Z,98.50
2018-03-23T05:41:45.379Z,98.20
2018-03-23T05:44:14.249Z,98.40
2018-03-23T05:46:43.115Z,97.70
2018-03-23T05:49:12.153Z,97.20
2018-03-23T05:51:41.018Z,97.60
2018-03-23T05:54:09.886Z,97.70
2018-03-23T05:56:39.094Z,97.80
2018-03-23T05:59:09.045Z,97.80
2018-03-23T06:01:38.286Z,97.80
2018-03-23T06:04:07.100Z,98.40
2018-03-23T06:06:36.657Z,97.80
2018-03-23T06:09:05.643Z,97.90
2018-03-23T06:11:34.535Z,98.10
2018-03-23T06:14:03.476Z,97.30
2018-03-23T06:16:33.072Z,97.10
2018-03-23T06:19:02.225Z,97.10
2018-03-23T06:21:31.572Z,97.50
2018-03-23T06:24:00.391Z,97.20
2018-03-23T06:26:29.559Z,97.10
2018-03-23T06:28:58.544Z,96.70
2018-03-23T06:31:28.541Z,97.20
2018-03-23T06:33:57.464Z,97.10
2018-03-23T06:36:27.124Z,96.20
2018-03-23T06:38:56.010Z,96.10
2018-03-23T06:41:24.992Z,95.90
2018-03-23T06:43:53.985Z,96.50
2018-03-23T06:46:22.903Z,96.50
2018-03-23T06:48:51.727Z,96.80
2018-03-23T06:51:20.717Z,97.60
2018-03-23T06:53:49.625Z,98.10
2018-03-23T06:56:18.548Z,97.80
2018-03-23T06:58:47.401Z,98.30
2018-03-23T07:01:16.301Z,98.10
2018-03-23T07:03:45.786Z,98.40
2018-03-23T07:06:15.362Z,98.70
2018-03-23T07:08:44.284Z,98.60
2018-03-23T07:11:14.049Z,98.90
2018-03-23T07:13:43.060Z,98.60
2018-03-23T07:16:12.065Z,99.60
2018-03-23T07:18:41.698Z,98.30
2018-03-23T07:21:10.472Z,98.30
2018-03-23T07:23:39.358Z,99.30
2018-03-23T07:26:08.518Z,99.10
2018-03-23T07:28:38.327Z,99.60
2018-03-23T07:31:07.432Z,99.60
2018-03-23T07:33:37.205Z,99.50
2018-03-23T07:36:06.023Z,99.90
2018-03-23T07:38:34.845Z,99.40
2018-03-23T07:41:04.153Z,99.90
2018-03-23T07:43:32.966Z,99.90
2018-03-23T07:46:02.562Z,99.90
2018-03-23T07:48:31.599Z,99.90
2018-03-23T07:51:00.513Z,99.90
2018-03-23T07:53:29.783Z,99.90
2018-03-23T07:55:58.905Z,99.90
2018-03-23T07:58:27.692Z,99.90
2018-03-23T08:00:56.500Z,99.90
2018-03-23T08:03:25.408Z,99.90
2018-03-23T08:05:54.313Z,99.90
2018-03-23T08:08:23.262Z,99.90
2018-03-23T08:10:52.922Z,99.40
2018-03-23T08:13:21.810Z,99.40
2018-03-23T08:15:51.441Z,99.90
2018-03-23T08:18:20.522Z,99.90
2018-03-23T08:20:49.436Z,99.90
2018-03-23T08:23:18.319Z,99.90
2018-03-23T08:25:47.231Z,99.90
2018-03-23T08:28:16.260Z,99.90
2018-03-23T08:30:46.290Z,99.90
2018-03-23T08:33:15.900Z,99.90
2018-03-23T08:35:45.416Z,99.90
2018-03-23T08:38:14.380Z,99.90
2018-03-23T08:40:43.193Z,97.60
2018-03-23T08:43:12.796Z,94.40
2018-03-23T08:45:41.708Z,94.30
2018-03-23T08:48:10.725Z,93.50
2018-03-23T08:50:40.147Z,93.10
2018-03-23T08:53:09.080Z,93.50
2018-03-23T08:55:38.878Z,94.10
2018-03-23T08:58:07.808Z,94.20
2018-03-23T09:00:36.730Z,94.00
2018-03-23T09:03:05.778Z,94.30
2018-03-23T09:05:34.641Z,94.20
2018-03-23T09:08:03.574Z,93.50
2018-03-23T09:10:32.636Z,94.00
2018-03-23T09:13:01.708Z,94.40
2018-03-23T09:15:30.577Z,94.40
2018-03-23T09:17:59.444Z,92.70
2018-03-23T09:20:28.212Z,93.40
2018-03-23T09:22:57.431Z,94.00
2018-03-23T09:25:26.350Z,93.70
2018-03-23T09:27:56.850Z,93.20
2018-03-23T09:30:26.750Z,92.60
2018-03-23T09:32:55.683Z,93.80
2018-03-23T09:35:25.107Z,95.40
2018-03-23T09:37:54.124Z,94.80
2018-03-23T09:40:22.848Z,94.50
2018-03-23T09:43:01.035Z,94.30
2018-03-23T09:45:31.898Z,95.40
2018-03-23T09:48:01.196Z,95.50
2018-03-23T09:50:30.642Z,95.00
2018-03-23T09:53:00.322Z,95.20
2018-03-23T09:55:29.785Z,95.20
2018-03-23T09:58:02.976Z,95.70
2018-03-23T10:00:34.452Z,96.70
2018-03-23T10:03:03.760Z,96.70
2018-03-23T10:05:37.604Z,96.30
2018-03-23T10:08:07.539Z,96.70
2018-03-23T10:10:36.751Z,96.70
2018-03-23T10:13:06.284Z,96.80
2018-03-23T10:15:35.215Z,96.80
2018-03-23T10:18:04.120Z,94.90
2018-03-23T10:20:33.197Z,95.50
2018-03-23T10:23:02.864Z,95.70
2018-03-23T10:25:31.867Z,95.40
2018-03-23T10:28:01.107Z,94.00
2018-03-23T10:30:30.012Z,92.10
2018-03-23T10:32:59.051Z,92.30
2018-03-23T10:35:27.958Z,90.80
2018-03-23T10:37:56.838Z,91.60
2018-03-23T10:40:25.657Z,90.10
2018-03-23T10:42:54.604Z,86.90
2018-03-23T10:45:23.441Z,85.60
2018-03-23T10:47:53.864Z,81.60
2018-03-23T10:50:22.883Z,84.20
2018-03-23T10:52:52.375Z,77.70
2018-03-23T10:55:22.548Z,77.80
2018-03-23T10:57:52.452Z,77.80
2018-03-23T11:00:27.450Z,75.70
2018-03-23T11:02:57.153Z,74.80
2018-03-23T11:05:27.008Z,78.30
2018-03-23T11:07:55.916Z,78.10
2018-03-23T11:10:25.909Z,78.20
2018-03-23T11:12:55.487Z,78.20
2018-03-23T11:15:24.562Z,80.50
2018-03-23T11:17:53.717Z,81.40
2018-03-23T11:20:23.329Z,86.20
2018-03-23T11:22:57.906Z,86.10
2018-03-23T11:25:33.054Z,87.10
2018-03-23T11:28:01.927Z,87.70
2018-03-23T11:30:30.838Z,88.70
2018-03-23T11:33:00.109Z,85.30
2018-03-23T11:35:28.919Z,87.80
2018-03-23T11:37:59.344Z,84.90
2018-03-23T11:40:29.010Z,85.70
2018-03-23T11:42:57.839Z,85.30
2018-03-23T11:45:26.972Z,85.20
2018-03-23T11:47:55.830Z,82.50
2018-03-23T11:50:24.720Z,79.80
2018-03-23T11:52:53.632Z,79.90
2018-03-23T11:55:22.520Z,78.20
2018-03-23T11:57:51.436Z,77.10
2018-03-23T12:00:20.308Z,75.10
2018-03-23T12:02:49.100Z,70.30
2018-03-23T12:05:18.057Z,73.00
2018-03-23T12:07:47.808Z,69.50
2018-03-23T12:42:05.430Z,76.00
2018-03-23T12:44:34.659Z,77.70
2018-03-23T12:47:03.659Z,81.50
2018-03-23T12:49:33.114Z,84.50
2018-03-23T12:52:02.445Z,88.90
2018-03-23T12:54:32.228Z,90.20
2018-03-23T12:57:01.396Z,90.20
2018-03-23T12:59:30.429Z,89.80
2018-03-23T13:01:59.433Z,90.50
2018-03-23T13:04:30.016Z,89.70
2018-03-23T13:06:59.056Z,89.80
2018-03-23T13:09:27.995Z,90.70
2018-03-23T13:11:57.912Z,90.30
2018-03-23T13:14:27.324Z,90.30
2018-03-23T13:16:57.098Z,90.60
2018-03-23T13:19:26.082Z,90.60
2018-03-23T13:21:54.970Z,90.90
2018-03-23T13:24:24.105Z,91.00
2018-03-23T13:26:54.036Z,91.50
2018-03-23T13:29:23.108Z,91.60
2018-03-23T13:31:52.908Z,92.10
2018-03-23T13:34:21.880Z,92.00
2018-03-23T13:36:50.921Z,92.50
2018-03-23T13:39:20.685Z,92.80
2018-03-23T13:41:49.751Z,92.80
2018-03-23T13:44:18.787Z,92.70
2018-03-23T13:46:53.435Z,92.30
2018-03-23T13:49:29.687Z,92.30
2018-03-23T13:51:59.588Z,92.30
2018-03-23T13:54:29.573Z,92.40
2018-03-23T13:56:58.542Z,92.10
2018-03-23T13:59:33.812Z,91.60
2018-03-23T14:02:02.892Z,91.50
2018-03-23T14:04:32.554Z,91.60
2018-03-23T14:07:01.659Z,91.60
2018-03-23T14:09:30.899Z,92.10
2018-03-23T14:11:59.994Z,91.30
2018-03-23T14:14:30.120Z,90.60
2018-03-23T14:16:59.057Z,90.50
2018-03-23T14:19:28.130Z,90.50
2018-03-23T14:21:57.224Z,89.70
2018-03-23T14:24:26.239Z,89.80
2018-03-23T14:26:55.323Z,89.80
2018-03-23T14:29:24.536Z,90.80
2018-03-23T14:31:54.601Z,91.10
2018-03-23T14:34:23.672Z,91.00
2018-03-23T14:36:52.565Z,91.50
2018-03-23T14:39:21.577Z,91.50
2018-03-23T14:41:51.391Z,91.80
2018-03-23T14:44:20.282Z,91.80
2018-03-23T14:46:49.284Z,92.00
2018-03-23T14:49:18.266Z,92.10
2018-03-23T14:51:47.245Z,92.70
2018-03-23T14:54:17.052Z,91.40
2018-03-23T14:56:46.669Z,91.50
2018-03-23T14:59:16.881Z,91.50
2018-03-23T15:01:45.893Z,91.30
2018-03-23T15:04:15.940Z,91.60
2018-03-23T15:06:44.917Z,91.60
2018-03-23T15:09:13.880Z,92.40
2018-03-23T15:11:42.882Z,92.20
2018-03-23T15:14:17.931Z,92.70
2018-03-23T15:16:47.350Z,92.70
2018-03-23T15:19:16.692Z,92.70
2018-03-23T15:21:45.776Z,93.00
2018-03-23T15:24:14.798Z,93.30
2018-03-23T15:26:44.143Z,93.80
2018-03-23T15:29:13.059Z,94.20
2018-03-23T15:31:42.108Z,94.40
2018-03-23T15:34:11.879Z,95.40
2018-03-23T15:36:40.938Z,95.40
2018-03-23T15:39:09.924Z,96.00
2018-03-23T15:41:39.663Z,96.30
2018-03-23T15:44:08.883Z,96.30
2018-03-23T15:46:37.824Z,96.30
2018-03-23T15:49:06.920Z,96.00
2018-03-23T15:51:36.128Z,95.80
2018-03-23T15:54:05.168Z,96.00
2018-03-23T15:56:34.470Z,96.20
2018-03-23T15:59:03.408Z,96.30
2018-03-23T16:01:32.488Z,95.90
2018-03-23T16:04:02.221Z,96.30
2018-03-23T16:06:31.383Z,96.30
2018-03-23T16:09:00.520Z,95.90
2018-03-23T16:11:30.427Z,95.90
2018-03-23T16:13:59.645Z,95.90
2018-03-23T16:16:28.741Z,95.70
2018-03-23T16:18:57.789Z,95.80
2018-03-23T16:21:26.780Z,95.90
2018-03-23T16:23:55.992Z,96.30
2018-03-23T16:26:25.127Z,96.40
2018-03-23T16:28:54.104Z,96.60
2018-03-23T16:31:23.395Z,96.50
2018-03-23T16:33:52.507Z,97.00
2018-03-23T16:36:21.922Z,97.00
2018-03-23T16:38:50.864Z,97.80
2018-03-23T16:41:19.854Z,97.60
2018-03-23T16:43:48.986Z,97.60
2018-03-23T16:46:19.270Z,98.00
2018-03-23T16:48:48.272Z,98.00
2018-03-23T16:51:17.343Z,97.90
2018-03-23T16:53:46.599Z,98.20
2018-03-23T16:56:15.990Z,98.30
2018-03-23T16:58:45.133Z,98.40
2018-03-23T17:01:14.228Z,98.60
2018-03-23T17:03:43.548Z,98.70
2018-03-23T17:06:13.281Z,98.90
2018-03-23T17:08:42.342Z,99.10
2018-03-23T17:11:11.489Z,98.80
2018-03-23T17:13:40.890Z,98.70
2018-03-23T17:16:10.012Z,98.90
2018-03-23T17:18:38.962Z,99.00
2018-03-23T17:21:07.992Z,99.20
2018-03-23T17:23:37.195Z,99.30
2018-03-23T17:26:06.599Z,99.70
2018-03-23T17:28:35.764Z,99.50
2018-03-23T17:31:05.075Z,99.40
2018-03-23T17:33:34.030Z,99.50
2018-03-23T17:36:03.042Z,99.60
2018-03-23T17:38:32.124Z,99.40
2018-03-23T17:41:05.217Z,99.60
2018-03-23T17:43:35.252Z,99.60
2018-03-23T17:46:04.600Z,99.60
2018-03-23T17:48:34.543Z,99.70
2018-03-23T17:51:04.431Z,99.50
2018-03-23T17:53:34.994Z,99.60
2018-03-23T17:56:05.751Z,99.50
2018-03-23T17:58:34.734Z,99.50
2018-03-23T18:01:03.757Z,99.40
2018-03-23T18:03:33.764Z,99.40
2018-03-23T18:06:03.290Z,99.50
2018-03-23T18:08:33.824Z,99.60
2018-03-23T18:11:03.058Z,99.90
2018-03-23T18:13:32.981Z,99.90
2018-03-23T18:16:02.965Z,99.90
2018-03-23T18:18:31.898Z,99.90
2018-03-23T18:21:01.096Z,99.90
2018-03-23T18:23:30.280Z,99.90
2018-03-23T18:26:00.120Z,99.90
2018-03-23T18:28:29.034Z,99.90
2018-03-23T18:30:58.131Z,99.90
2018-03-23T18:33:27.195Z,99.90
2018-03-23T18:35:56.243Z,99.90
2018-03-23T18:38:28.314Z,99.90
2018-03-23T18:40:57.374Z,99.90
2018-03-23T18:43:27.369Z,99.90
2018-03-23T18:45:57.489Z,99.90
2018-03-23T18:48:26.428Z,99.90
2018-03-23T18:50:56.263Z,99.90
2018-03-23T18:53:26.076Z,99.90
2018-03-23T18:55:57.387Z,99.90
2018-03-23T18:58:26.374Z,99.90
2018-03-23T19:00:55.547Z,99.90
2018-03-23T19:03:24.494Z,99.90
2018-03-23T19:05:54.626Z,99.90
2018-03-23T19:08:24.453Z,99.90
2018-03-23T19:10:53.568Z,99.90
2018-03-23T19:13:23.695Z,99.90
2018-03-23T19:15:52.770Z,99.90
2018-03-23T19:18:22.139Z,99.90
2018-03-23T19:20:51.186Z,99.90
2018-03-23T19:23:20.446Z,99.90
2018-03-23T19:25:49.509Z,99.90
2018-03-23T19:28:18.472Z,99.90
2018-03-23T19:30:47.395Z,99.90
2018-03-23T19:33:17.368Z,99.90
2018-03-23T19:35:46.372Z,99.90
2018-03-23T19:38:16.243Z,99.90
2018-03-23T19:40:45.268Z,99.90
2018-03-23T19:43:14.536Z,99.90
2018-03-23T19:45:43.478Z,99.90
2018-03-23T19:48:12.452Z,99.90
2018-03-23T19:50:41.572Z,99.90
2018-03-23T19:53:10.872Z,99.90
2018-03-23T19:55:39.852Z,99.90
2018-03-23T19:58:08.786Z,99.90
2018-03-23T20:00:37.968Z,99.90
2018-03-23T20:03:07.029Z,99.90
2018-03-23T20:05:36.043Z,99.90
2018-03-23T20:08:05.460Z,99.90
2018-03-23T20:10:35.243Z,99.90
2018-03-23T20:13:04.352Z,99.90
2018-03-23T20:15:33.696Z,99.90
2018-03-23T20:18:08.359Z,99.90
2018-03-23T20:20:42.908Z,99.90
2018-03-23T20:23:12.011Z,99.90
2018-03-23T20:25:42.125Z,99.90
2018-03-23T20:28:16.700Z,99.90
2018-03-23T20:30:45.770Z,99.90
2018-03-23T20:33:15.582Z,99.90
2018-03-23T20:35:44.641Z,99.90
2018-03-23T20:38:13.874Z,99.90
2018-03-23T20:40:43.110Z,99.90
2018-03-23T20:43:12.049Z,99.90
2018-03-23T20:45:42.081Z,99.90
2018-03-23T20:48:11.091Z,99.90
2018-03-23T20:50:40.116Z,99.90
2018-03-23T20:53:10.151Z,99.90
2018-03-23T20:55:39.079Z,99.90
2018-03-23T20:58:08.474Z,99.90
2018-03-23T21:00:37.559Z,99.90
2018-03-23T21:03:06.572Z,99.90
2018-03-23T21:05:36.279Z,99.90
2018-03-23T21:08:05.605Z,99.90
2018-03-23T21:10:35.516Z,99.90
2018-03-23T21:13:04.671Z,99.90
2018-03-23T21:15:33.792Z,99.90
2018-03-23T21:18:03.568Z,99.90
2018-03-23T21:20:33.483Z,99.90
2018-03-23T21:23:02.543Z,99.90
2018-03-23T21:25:31.570Z,99.90
2018-03-23T21:28:00.630Z,99.90
2018-03-23T21:30:29.632Z,99.90
2018-03-23T21:32:58.578Z,99.90
2018-03-23T21:35:27.545Z,99.90
2018-03-23T21:37:56.514Z,99.90
2018-03-23T21:40:25.607Z,99.90
2018-03-23T21:42:54.609Z,99.90
2018-03-23T21:45:23.590Z,99.90
2018-03-23T21:47:52.522Z,99.90
2018-03-23T21:50:21.506Z,99.90
2018-03-23T21:52:50.588Z,99.90
2018-03-23T21:55:20.526Z,99.90
2018-03-23T21:57:49.524Z,99.90
2018-03-23T22:00:18.513Z,99.90
2018-03-23T22:02:47.397Z,99.90
2018-03-23T22:05:22.380Z,99.90
2018-03-23T22:07:57.157Z,99.90
2018-03-23T22:10:31.704Z,99.90
2018-03-23T22:13:06.160Z,99.90
2018-03-23T22:15:40.944Z,99.90
2018-03-23T22:18:13.773Z,99.90
2018-03-23T22:20:47.386Z,99.90
2018-03-23T22:23:18.846Z,99.90
2018-03-23T22:25:51.299Z,99.90
2018-03-23T22:28:26.132Z,99.90
2018-03-23T22:31:00.123Z,99.90
2018-03-23T22:33:34.346Z,99.90
2018-03-23T22:36:07.251Z,99.90
2018-03-23T22:38:42.529Z,99.90
2018-03-23T22:41:14.634Z,99.90
2018-03-23T22:43:47.690Z,99.90
2018-03-23T22:46:19.483Z,99.90
2018-03-23T22:48:50.863Z,99.90
2018-03-23T22:51:23.914Z,99.90
2018-03-23T22:53:53.740Z,99.90
2018-03-23T22:56:26.924Z,99.90
2018-03-23T22:59:01.697Z,99.90
2018-03-23T23:01:36.604Z,99.90
2018-03-23T23:04:06.279Z,99.90
2018-03-23T23:06:35.357Z,99.90
2018-03-23T23:09:05.366Z,99.90
2018-03-23T23:11:35.213Z,99.90
2018-03-23T23:14:04.348Z,99.90
2018-03-23T23:16:33.305Z,99.90
2018-03-23T23:19:02.587Z,99.90
2018-03-23T23:21:31.624Z,99.90
2018-03-23T23:24:00.570Z,99.90
2018-03-23T23:26:29.730Z,99.90
2018-03-23T23:28:59.566Z,99.90
2018-03-23T23:31:28.568Z,99.90
2018-03-23T23:33:57.743Z,99.90
2018-03-23T23:36:26.912Z,99.90
2018-03-23T23:38:56.407Z,99.90
2018-03-23T23:41:25.395Z,99.90
2018-03-23T23:43:54.319Z,99.90
2018-03-23T23:46:23.579Z,99.90
2018-03-23T23:48:52.546Z,99.90
2018-03-23T23:51:22.435Z,99.90
2018-03-23T23:53:51.394Z,99.90
2018-03-23T23:56:20.307Z,99.90
